Rector, NY

12:00 AM EDT on April 29, 2017 (GMT -0400)
Highland Acres | | Change Station

Elev 1621 ft 43.80 °N, 75.69 °W | Updated 9 minutes ago

Overcast
Overcast
55.5 °F
Feels Like 55.5 °F
N
3.0
Wind Variable Wind from SSW
Gusts 4.0 mph

Today
High -- | Low -- °F
--% Chance of Precip.
Yesterday
High -- | Low -- °F
Precip. -- in
Pressure 29.96 in
Visibility 10.0 miles
Clouds Mostly Cloudy 10000 ft
Mostly Cloudy 13000 ft
Dew Point 44 °F
Humidity 66%
Rainfall 0.14 in
Snow Depth Not available.
5:57 AM 8:03 PM
Waxing Crescent, 10% visible
METAR KGTB 290358Z AUTO 18007KT 10SM BKN100 BKN130 14/06 A2996 RMK AO2 SLP146 T01380063 $
Pressure 29.96 in
Visibility 10.0 miles
Clouds Mostly Cloudy 10000 ft
Mostly Cloudy 13000 ft
Dew Point 44 °F
Humidity 66%
Rainfall 0.14 in
Snow Depth Not available.
5:57 AM 8:03 PM
Waxing Crescent, 10% visible
METAR KGTB 290358Z AUTO 18007KT 10SM BKN100 BKN130 14/06 A2996 RMK AO2 SLP146 T01380063 $

Get Severe Weather Alerts

Thanks for signing up!

Be on the lookout for a verification email in your inbox.

You'll start receiving the daily forecast at 8 AM.

×

10-Day Weather Forecast

Almanac

Astronomy

Apr. 29, 2017 Rise Set
Actual Time
Civil Twilight
Nautical Twilight
Astronomical Twilight
Moon
Length of Visible Light
Length of Day
Tomorrow will be .
, % of the Moon is Illuminated

Today's Extremes

State Highs State Lows

Community

WunderPhotos

WunderBlog® & News

Nearby

Air Quality

  Air Quality AQ Index Pollutant
Not available.

Snow Depth

Station Depth Elevation

Earthquake Activity

City Distance Mag. Time & Date
Minimum magnitude displayed is 2.5.

Coastal Water Temperatures

Place Temperature

Stations

Nearby Weather Stations

Station Location Temp. Windchill Dew Point Humidity Wind Precip. Elev Updated Type
                   

Watches & Warnings

There are currently no watches in effect.